Time;durP1;ratioP1;P1;durP2;ratioP2;P2;SDS_P1;SDS_P2;PMS_P1;PMS_P2;Temp;Humidity;BMP_temperature;BMP_pressure;BME280_temperature;BME280_humidity;BME280_pressure;Samples;Min_cycle;Max_cycle;Signal;HPM_P1;HPM_P2
2021/03/07 00:01:21;;;;;;;;;;;;;;;;;;4991506;28;20032;-66
2021/03/07 00:03:49;;;;;;;;;;;;;;;;;;4993612;28;19981;-66
2021/03/07 00:06:16;;;;;;;;;;;;;;;;;;4993682;28;20437;-66
2021/03/07 00:08:43;;;;;;;;;;;;;;;;;;4988141;28;19974;-66
2021/03/07 00:11:20;;;;;;;;;;;;;;;;;;4974541;28;19978;-66
2021/03/07 00:13:47;;;;;;;;;;;;;;;;;;4978057;28;19961;-65
2021/03/07 00:16:14;;;;;;;;;;;;;;;;;;4987819;28;20390;-66
2021/03/07 00:18:42;;;;;;;;;;;;;;;;;;4992264;28;20021;-66
2021/03/07 00:21:09;;;;;;;;;;;;;;;;;;4992959;28;19932;-65
2021/03/07 00:23:36;;;;;;;;;;;;;;;;;;4993832;28;19929;-66
2021/03/07 00:26:03;;;;;;;;;;;;;;;;;;4993957;28;19957;-65
2021/03/07 00:28:30;;;;;;;;;;;;;;;;;;4991813;28;19952;-67
2021/03/07 00:30:58;;;;;;;;;;;;;;;;;;4995124;28;19930;-66
2021/03/07 00:33:25;;;;;;;;;;;;;;;;;;4991516;28;19926;-65
2021/03/07 00:35:52;;;;;;;;;;;;;;;;;;4991560;28;19929;-65
2021/03/07 00:38:20;;;;;;;;;;;;;;;;;;4990334;28;20001;-66
2021/03/07 00:40:47;;;;;;;;;;;;;;;;;;4988844;28;20021;-65
2021/03/07 00:43:14;;;;;;;;;;;;;;;;;;4992635;28;19969;-66
2021/03/07 00:45:42;;;;;;;;;;;;;;;;;;4983929;28;19985;-68
2021/03/07 00:48:09;;;;;;;;;;;;;;;;;;4990672;28;20397;-65
2021/03/07 00:50:36;;;;;;;;;;;;;;;;;;4993465;28;19926;-66
2021/03/07 00:53:03;;;;;;;;;;;;;;;;;;4992322;28;20005;-65
2021/03/07 00:55:31;;;;;;;;;;;;;;;;;;4992884;28;20384;-66
2021/03/07 00:57:58;;;;;;;;;;;;;;;;;;4991461;28;20354;-66
2021/03/07 01:00:25;;;;;;;;;;;;;;;;;;4997660;28;20025;-67
2021/03/07 01:02:53;;;;;;;;;;;;;;;;;;4988974;28;19929;-67
2021/03/07 01:05:20;;;;;;;;;;;;;;;;;;4991316;28;20374;-65
2021/03/07 01:07:47;;;;;;;;;;;;;;;;;;4991551;28;20309;-66
2021/03/07 01:10:14;;;;;;;;;;;;;;;;;;4993106;28;20021;-65
2021/03/07 01:12:42;;;;;;;;;;;;;;;;;;4985481;28;19930;-66
2021/03/07 01:15:09;;;;;;;;;;;;;;;;;;4993022;28;19973;-66
2021/03/07 01:17:36;;;;;;;;;;;;;;;;;;4989967;28;19930;-66
2021/03/07 01:20:03;;;;;;;;;;;;;;;;;;4993068;28;19976;-67
2021/03/07 01:22:40;;;;;;;;;;;;;;;;;;4992728;28;20021;-65
2021/03/07 01:25:07;;;;;;;;;;;;;;;;;;4992428;28;20376;-66
2021/03/07 01:27:34;;;;;;;;;;;;;;;;;;4986095;28;19929;-66
2021/03/07 01:30:01;;;;;;;;;;;;;;;;;;4988539;28;19929;-66
2021/03/07 01:32:28;;;;;;;;;;;;;;;;;;4991510;28;19981;-66
2021/03/07 01:34:56;;;;;;;;;;;;;;;;;;4992842;28;19930;-68
2021/03/07 01:37:23;;;;;;;;;;;;;;;;;;4985614;28;19966;-66
2021/03/07 01:39:50;;;;;;;;;;;;;;;;;;4972336;28;19966;-66
2021/03/07 01:42:24;;;;;;;;;;;;;;;;;;4973838;28;19930;-66
2021/03/07 01:44:51;;;;;;;;;;;;;;;;;;4992750;28;19949;-65
2021/03/07 01:47:19;;;;;;;;;;;;;;;;;;4987003;28;19940;-66
2021/03/07 01:49:46;;;;;;;;;;;;;;;;;;4982533;28;19937;-68
2021/03/07 01:52:13;;;;;;;;;;;;;;;;;;4991039;28;19930;-66
2021/03/07 01:54:40;;;;;;;;;;;;;;;;;;4985897;28;19973;-66
2021/03/07 01:57:07;;;;;;;;;;;;;;;;;;4990915;28;19977;-66
2021/03/07 01:59:35;;;;;;;;;;;;;;;;;;4971970;28;19973;-66
2021/03/07 02:04:30;;;;;;;;;;;;;;;;;;4953878;28;19930;-62
2021/03/07 02:06:57;;;;;;;;;;;;;;;;;;4953058;29;20021;-63
2021/03/07 02:09:24;;;;;;;;;;;;;;;;;;4953299;29;19931;-63
2021/03/07 02:11:51;;;;;;;;;;;;;;;;;;4960651;28;19985;-62
2021/03/07 02:14:18;;;;;;;;;;;;;;;;;;4959538;28;20024;-62
2021/03/07 02:16:46;;;;;;;;;;;;;;;;;;4965978;28;19936;-63
2021/03/07 02:19:13;;;;;;;;;;;;;;;;;;4952396;29;19974;-65
2021/03/07 02:21:40;;;;;;;;;;;;;;;;;;4949553;29;20013;-62
2021/03/07 02:24:07;;;;;;;;;;;;;;;;;;4953195;29;19931;-63
2021/03/07 02:26:34;;;;;;;;;;;;;;;;;;4952234;29;19994;-61
2021/03/07 02:29:01;;;;;;;;;;;;;;;;;;4956384;28;19926;-64
2021/03/07 02:31:28;;;;;;;;;;;;;;;;;;4958968;28;19926;-63
2021/03/07 02:33:56;;;;;;;;;;;;;;;;;;4953772;29;20294;-63
2021/03/07 02:36:23;;;;;;;;;;;;;;;;;;4952734;29;20009;-63
2021/03/07 02:38:50;;;;;;;;;;;;;;;;;;4952419;28;20383;-62
2021/03/07 02:41:17;;;;;;;;;;;;;;;;;;4946325;29;20013;-65
2021/03/07 02:43:44;;;;;;;;;;;;;;;;;;4947573;29;20365;-63
2021/03/07 02:46:11;;;;;;;;;;;;;;;;;;4950354;29;20029;-63
2021/03/07 02:48:39;;;;;;;;;;;;;;;;;;4951385;29;20406;-62
2021/03/07 02:51:06;;;;;;;;;;;;;;;;;;4951975;29;19960;-62
2021/03/07 02:53:33;;;;;;;;;;;;;;;;;;4952855;28;20483;-63
2021/03/07 02:56:00;;;;;;;;;;;;;;;;;;4951706;29;20062;-63
2021/03/07 02:58:27;;;;;;;;;;;;;;;;;;4952087;29;20034;-64
2021/03/07 03:00:54;;;;;;;;;;;;;;;;;;4951792;29;19977;-63
2021/03/07 03:03:21;;;;;;;;;;;;;;;;;;4956027;28;19926;-61
2021/03/07 03:05:48;;;;;;;;;;;;;;;;;;4957902;28;20263;-63
2021/03/07 03:08:16;;;;;;;;;;;;;;;;;;4951796;29;19930;-64
2021/03/07 03:10:43;;;;;;;;;;;;;;;;;;4952029;29;20032;-63
2021/03/07 03:13:15;;;;;;;;;;;;;;;;;;4952533;29;19962;-61
2021/03/07 03:15:42;;;;;;;;;;;;;;;;;;4951256;28;19982;-61
2021/03/07 03:18:10;;;;;;;;;;;;;;;;;;4950895;29;19937;-63
2021/03/07 03:20:37;;;;;;;;;;;;;;;;;;4952068;29;19933;-62
2021/03/07 03:23:04;;;;;;;;;;;;;;;;;;4951496;29;20017;-63
2021/03/07 03:25:31;;;;;;;;;;;;;;;;;;4952378;29;19966;-63
2021/03/07 03:27:59;;;;;;;;;;;;;;;;;;4952021;28;19970;-65
2021/03/07 03:30:26;;;;;;;;;;;;;;;;;;4960525;28;19934;-62
2021/03/07 03:32:53;;;;;;;;;;;;;;;;;;4956574;29;19985;-61
2021/03/07 03:35:20;;;;;;;;;;;;;;;;;;4953594;28;19931;-63
2021/03/07 03:37:47;;;;;;;;;;;;;;;;;;4955766;29;20025;-63
2021/03/07 03:40:14;;;;;;;;;;;;;;;;;;4955933;29;19990;-62
2021/03/07 03:42:42;;;;;;;;;;;;;;;;;;4954310;28;19981;-64
2021/03/07 03:45:09;;;;;;;;;;;;;;;;;;4956399;29;19934;-63
2021/03/07 03:47:36;;;;;;;;;;;;;;;;;;4954649;29;20022;-65
2021/03/07 03:50:03;;;;;;;;;;;;;;;;;;4955833;29;19927;-64
2021/03/07 03:52:30;;;;;;;;;;;;;;;;;;4955269;28;19933;-62
2021/03/07 03:54:58;;;;;;;;;;;;;;;;;;4955984;29;19978;-62
2021/03/07 03:57:25;;;;;;;;;;;;;;;;;;4955170;29;20477;-62
2021/03/07 03:59:52;;;;;;;;;;;;;;;;;;4955272;29;19930;-62
2021/03/07 04:02:19;;;;;;;;;;;;;;;;;;4954053;28;20020;-61
2021/03/07 04:04:46;;;;;;;;;;;;;;;;;;4955298;29;20285;-64
2021/03/07 04:07:13;;;;;;;;;;;;;;;;;;4954747;29;19927;-62
2021/03/07 04:09:41;;;;;;;;;;;;;;;;;;4956015;29;19927;-64
2021/03/07 04:12:08;;;;;;;;;;;;;;;;;;4956389;29;20356;-61
2021/03/07 04:14:35;;;;;;;;;;;;;;;;;;4955723;29;19926;-61
2021/03/07 04:17:02;;;;;;;;;;;;;;;;;;4955550;29;19931;-63
2021/03/07 04:19:30;;;;;;;;;;;;;;;;;;4954194;29;19962;-62
2021/03/07 04:21:57;;;;;;;;;;;;;;;;;;4954795;29;20006;-64
2021/03/07 04:24:25;;;;;;;;;;;;;;;;;;4955549;29;20403;-63
2021/03/07 04:26:52;;;;;;;;;;;;;;;;;;4955622;28;19926;-61
2021/03/07 04:29:20;;;;;;;;;;;;;;;;;;4957103;28;20430;-61
2021/03/07 04:31:47;;;;;;;;;;;;;;;;;;4954201;29;19958;-61
2021/03/07 04:34:14;;;;;;;;;;;;;;;;;;4952162;29;19930;-62
2021/03/07 04:36:42;;;;;;;;;;;;;;;;;;4976913;28;19937;-63
2021/03/07 04:39:09;;;;;;;;;;;;;;;;;;4993191;28;19926;-62
2021/03/07 04:41:36;;;;;;;;;;;;;;;;;;4975731;28;19926;-64
2021/03/07 04:44:03;;;;;;;;;;;;;;;;;;4976255;28;20012;-63
2021/03/07 04:46:30;;;;;;;;;;;;;;;;;;4975522;28;19937;-63
2021/03/07 04:48:58;;;;;;;;;;;;;;;;;;4973719;28;19926;-64
2021/03/07 04:51:25;;;;;;;;;;;;;;;;;;4973644;28;20310;-62
2021/03/07 04:53:52;;;;;;;;;;;;;;;;;;4973381;28;20012;-63
2021/03/07 04:56:19;;;;;;;;;;;;;;;;;;4974354;28;20369;-63
2021/03/07 04:58:46;;;;;;;;;;;;;;;;;;4973570;28;19988;-63
2021/03/07 05:01:14;;;;;;;;;;;;;;;;;;4970658;28;19976;-61
2021/03/07 05:03:42;;;;;;;;;;;;;;;;;;4973459;28;20067;-62
2021/03/07 05:06:11;;;;;;;;;;;;;;;;;;4974291;28;19937;-64
2021/03/07 05:08:38;;;;;;;;;;;;;;;;;;4973418;28;19926;-61
2021/03/07 05:11:05;;;;;;;;;;;;;;;;;;4972787;28;19955;-62
2021/03/07 05:13:32;;;;;;;;;;;;;;;;;;4972943;28;19930;-63
2021/03/07 05:15:59;;;;;;;;;;;;;;;;;;4973343;28;20012;-64
2021/03/07 05:18:27;;;;;;;;;;;;;;;;;;4973685;28;20050;-64
2021/03/07 05:20:54;;;;;;;;;;;;;;;;;;4973903;28;19962;-62
2021/03/07 05:23:21;;;;;;;;;;;;;;;;;;4957441;28;20347;-62
2021/03/07 05:25:48;;;;;;;;;;;;;;;;;;4976073;28;19926;-63
2021/03/07 05:28:16;;;;;;;;;;;;;;;;;;4973390;28;20024;-62
2021/03/07 05:30:43;;;;;;;;;;;;;;;;;;4973703;28;20335;-62
2021/03/07 05:33:11;;;;;;;;;;;;;;;;;;4973641;28;20017;-63
2021/03/07 05:35:38;;;;;;;;;;;;;;;;;;4962092;28;19926;-61
2021/03/07 05:38:06;;;;;;;;;;;;;;;;;;4973443;28;20009;-62
2021/03/07 05:40:33;;;;;;;;;;;;;;;;;;4972948;28;19973;-61
2021/03/07 05:43:00;;;;;;;;;;;;;;;;;;4972261;28;20016;-61
2021/03/07 05:45:27;;;;;;;;;;;;;;;;;;4973277;28;19984;-63
2021/03/07 05:47:54;;;;;;;;;;;;;;;;;;4972955;28;19930;-63
2021/03/07 05:50:22;;;;;;;;;;;;;;;;;;4973564;28;20037;-63
2021/03/07 05:52:49;;;;;;;;;;;;;;;;;;4972293;28;20025;-63
2021/03/07 05:55:16;;;;;;;;;;;;;;;;;;4973878;28;19996;-61
2021/03/07 05:57:43;;;;;;;;;;;;;;;;;;4973217;28;20384;-62
2021/03/07 06:00:10;;;;;;;;;;;;;;;;;;4969691;28;20367;-63
2021/03/07 06:02:38;;;;;;;;;;;;;;;;;;4972570;28;20298;-61
2021/03/07 06:05:05;;;;;;;;;;;;;;;;;;4972678;28;19932;-64
2021/03/07 06:07:33;;;;;;;;;;;;;;;;;;4971613;28;20395;-62
2021/03/07 06:10:01;;;;;;;;;;;;;;;;;;4974123;28;20008;-63
2021/03/07 06:12:28;;;;;;;;;;;;;;;;;;4973513;28;20042;-67
2021/03/07 06:14:55;;;;;;;;;;;;;;;;;;4972915;28;20025;-63
2021/03/07 06:17:22;;;;;;;;;;;;;;;;;;4972345;28;19926;-61
2021/03/07 06:19:49;;;;;;;;;;;;;;;;;;4970551;28;19926;-63
2021/03/07 06:22:16;;;;;;;;;;;;;;;;;;4972258;28;20344;-62
2021/03/07 06:24:44;;;;;;;;;;;;;;;;;;4972799;28;20409;-63
2021/03/07 06:27:11;;;;;;;;;;;;;;;;;;4971033;28;19933;-62
2021/03/07 06:29:38;;;;;;;;;;;;;;;;;;4973033;28;19930;-64
2021/03/07 06:32:06;;;;;;;;;;;;;;;;;;4973274;28;20481;-63
2021/03/07 06:34:33;;;;;;;;;;;;;;;;;;4962730;28;19937;-62
2021/03/07 06:37:00;;;;;;;;;;;;;;;;;;4969479;28;19945;-63
2021/03/07 06:39:28;;;;;;;;;;;;;;;;;;4971738;28;19981;-65
2021/03/07 06:41:55;;;;;;;;;;;;;;;;;;4971525;28;20017;-65
2021/03/07 06:44:22;;;;;;;;;;;;;;;;;;4970653;28;19977;-66
2021/03/07 06:46:49;;;;;;;;;;;;;;;;;;4965502;28;19937;-66
2021/03/07 06:49:17;;;;;;;;;;;;;;;;;;4970790;28;19950;-62
2021/03/07 06:51:44;;;;;;;;;;;;;;;;;;4972365;28;19930;-62
2021/03/07 06:54:11;;;;;;;;;;;;;;;;;;4970174;28;19965;-62
2021/03/07 06:56:38;;;;;;;;;;;;;;;;;;4971608;28;20009;-62
2021/03/07 06:59:05;;;;;;;;;;;;;;;;;;4969933;28;20417;-63
2021/03/07 07:01:32;;;;;;;;;;;;;;;;;;4965355;28;20021;-64
2021/03/07 07:04:00;;;;;;;;;;;;;;;;;;4970360;28;19926;-63
2021/03/07 07:06:28;;;;;;;;;;;;;;;;;;4970139;28;20001;-63
2021/03/07 07:08:55;;;;;;;;;;;;;;;;;;4965888;28;20046;-66
2021/03/07 07:11:23;;;;;;;;;;;;;;;;;;4980137;28;19926;-64
2021/03/07 07:13:51;;;;;;;;;;;;;;;;;;4969172;28;20402;-62
2021/03/07 07:16:31;;;;;;;;;;;;;;;;;;4969761;28;19929;-63
2021/03/07 07:18:58;;;;;;;;;;;;;;;;;;4968495;28;19930;-64
2021/03/07 07:21:25;;;;;;;;;;;;;;;;;;4967668;28;19993;-66
2021/03/07 07:23:53;;;;;;;;;;;;;;;;;;4956734;28;20645;-63
2021/03/07 07:26:20;;;;;;;;;;;;;;;;;;4964819;28;19946;-62
2021/03/07 07:28:47;;;;;;;;;;;;;;;;;;4956473;28;20374;-64
2021/03/07 07:31:14;;;;;;;;;;;;;;;;;;4967242;28;20028;-61
2021/03/07 07:33:41;;;;;;;;;;;;;;;;;;4962639;28;19934;-63
2021/03/07 07:36:08;;;;;;;;;;;;;;;;;;4963309;28;20060;-64
2021/03/07 07:38:35;;;;;;;;;;;;;;;;;;4964375;28;20379;-62
2021/03/07 07:41:03;;;;;;;;;;;;;;;;;;4968496;28;19930;-62
2021/03/07 07:43:30;;;;;;;;;;;;;;;;;;4968487;28;20469;-63
2021/03/07 07:45:57;;;;;;;;;;;;;;;;;;4986760;28;19937;-64
2021/03/07 07:48:24;;;;;;;;;;;;;;;;;;4964628;28;19973;-65
2021/03/07 07:50:51;;;;;;;;;;;;;;;;;;4966487;28;19930;-63
2021/03/07 07:53:18;;;;;;;;;;;;;;;;;;4969139;28;19945;-63
2021/03/07 07:55:46;;;;;;;;;;;;;;;;;;4960625;28;20357;-62
2021/03/07 07:58:13;;;;;;;;;;;;;;;;;;4965347;28;20016;-63
2021/03/07 08:00:40;;;;;;;;;;;;;;;;;;4967122;28;20464;-63
2021/03/07 08:03:08;;;;;;;;;;;;;;;;;;4962451;28;19926;-65
2021/03/07 08:05:35;;;;;;;;;;;;;;;;;;4959195;28;19961;-64
2021/03/07 08:08:02;;;;;;;;;;;;;;;;;;4964526;28;19941;-65
2021/03/07 08:10:29;;;;;;;;;;;;;;;;;;4968429;28;19930;-66
2021/03/07 08:12:56;;;;;;;;;;;;;;;;;;4964508;28;19989;-66
2021/03/07 08:15:24;;;;;;;;;;;;;;;;;;4968451;28;19985;-65
2021/03/07 08:17:51;;;;;;;;;;;;;;;;;;4969806;28;19938;-62
2021/03/07 08:20:18;;;;;;;;;;;;;;;;;;4971125;28;20615;-63
2021/03/07 08:22:45;;;;;;;;;;;;;;;;;;4965760;28;20381;-62
2021/03/07 08:25:12;;;;;;;;;;;;;;;;;;4962972;28;20017;-63
2021/03/07 08:27:39;;;;;;;;;;;;;;;;;;4964161;28;20021;-63
2021/03/07 08:30:07;;;;;;;;;;;;;;;;;;4961520;28;20060;-63
2021/03/07 08:32:34;;;;;;;;;;;;;;;;;;4964219;28;20403;-63
2021/03/07 08:35:01;;;;;;;;;;;;;;;;;;4964600;28;19930;-65
2021/03/07 08:37:30;;;;;;;;;;;;;;;;;;4964883;28;20013;-67
2021/03/07 08:39:58;;;;;;;;;;;;;;;;;;4963249;28;21652;-63
2021/03/07 08:42:25;;;;;;;;;;;;;;;;;;4969826;28;20000;-63
2021/03/07 08:44:52;;;;;;;;;;;;;;;;;;4966116;28;20760;-64
2021/03/07 08:47:34;;;;;;;;;;;;;;;;;;4963285;28;19930;-64
2021/03/07 08:50:01;;;;;;;;;;;;;;;;;;4964411;28;19941;-63
2021/03/07 08:52:29;;;;;;;;;;;;;;;;;;4963262;28;19977;-66
2021/03/07 08:54:56;;;;;;;;;;;;;;;;;;4961002;28;20005;-62
2021/03/07 08:57:23;;;;;;;;;;;;;;;;;;4963073;28;20022;-62
2021/03/07 08:59:50;;;;;;;;;;;;;;;;;;4967249;28;19980;-64
2021/03/07 09:02:17;;;;;;;;;;;;;;;;;;4966667;28;20013;-66
2021/03/07 09:04:45;;;;;;;;;;;;;;;;;;4959063;28;19930;-65
2021/03/07 09:07:12;;;;;;;;;;;;;;;;;;4969626;28;20389;-63
2021/03/07 09:09:39;;;;;;;;;;;;;;;;;;4966418;28;19973;-63
2021/03/07 09:12:06;;;;;;;;;;;;;;;;;;4964874;28;20323;-63
2021/03/07 09:14:34;;;;;;;;;;;;;;;;;;4967552;28;19930;-65
2021/03/07 09:17:01;;;;;;;;;;;;;;;;;;4967301;28;20389;-63
2021/03/07 09:19:28;;;;;;;;;;;;;;;;;;4967393;28;19993;-64
2021/03/07 09:21:56;;;;;;;;;;;;;;;;;;4969611;28;19930;-62
2021/03/07 09:24:23;;;;;;;;;;;;;;;;;;4968817;28;20024;-64
2021/03/07 09:26:50;;;;;;;;;;;;;;;;;;4963781;28;19940;-64
2021/03/07 09:29:17;;;;;;;;;;;;;;;;;;4951042;28;20033;-63
2021/03/07 09:31:44;;;;;;;;;;;;;;;;;;4950270;29;20052;-64
2021/03/07 09:34:11;;;;;;;;;;;;;;;;;;4967134;28;19930;-62
2021/03/07 09:36:39;;;;;;;;;;;;;;;;;;4969027;28;19969;-64
2021/03/07 09:39:06;;;;;;;;;;;;;;;;;;4968167;28;20028;-64
2021/03/07 09:41:33;;;;;;;;;;;;;;;;;;4969311;28;20453;-62
2021/03/07 09:44:00;;;;;;;;;;;;;;;;;;4968282;28;19930;-64
2021/03/07 09:46:27;;;;;;;;;;;;;;;;;;4968820;28;19930;-65
2021/03/07 09:48:55;;;;;;;;;;;;;;;;;;4964158;28;19930;-67
2021/03/07 09:51:22;;;;;;;;;;;;;;;;;;4967585;28;19933;-62
2021/03/07 09:53:49;;;;;;;;;;;;;;;;;;4963302;28;20390;-64
2021/03/07 09:56:16;;;;;;;;;;;;;;;;;;4969250;28;19981;-64
2021/03/07 09:58:43;;;;;;;;;;;;;;;;;;4968403;28;19937;-65
2021/03/07 10:01:11;;;;;;;;;;;;;;;;;;4967850;28;20342;-63
2021/03/07 10:03:38;;;;;;;;;;;;;;;;;;4966892;28;20305;-63
2021/03/07 10:06:06;;;;;;;;;;;;;;;;;;4969244;28;20266;-64
2021/03/07 10:08:34;;;;;;;;;;;;;;;;;;4973917;28;20385;-63
2021/03/07 10:11:01;;;;;;;;;;;;;;;;;;4965829;28;19932;-65
2021/03/07 10:13:28;;;;;;;;;;;;;;;;;;4965334;28;20337;-62
2021/03/07 10:15:55;;;;;;;;;;;;;;;;;;4964073;28;20037;-63
2021/03/07 10:18:32;;;;;;;;;;;;;;;;;;4961953;28;19941;-63
2021/03/07 10:21:00;;;;;;;;;;;;;;;;;;4965919;28;20274;-66
2021/03/07 10:23:27;;;;;;;;;;;;;;;;;;4965901;28;20091;-65
2021/03/07 10:25:54;;;;;;;;;;;;;;;;;;4965214;28;20293;-65
2021/03/07 10:28:30;;;;;;;;;;;;;;;;;;4967398;28;19937;-66
2021/03/07 10:30:57;;;;;;;;;;;;;;;;;;4965313;28;19949;-67
2021/03/07 10:33:26;;;;;;;;;;;;;;;;;;4966784;28;20119;-65
2021/03/07 10:35:54;;;;;;;;;;;;;;;;;;4962233;28;19985;-65
2021/03/07 10:38:21;;;;;;;;;;;;;;;;;;4960175;28;19930;-64
2021/03/07 10:40:49;;;;;;;;;;;;;;;;;;4964966;28;19930;-64
2021/03/07 10:43:16;;;;;;;;;;;;;;;;;;4966403;28;19964;-63
2021/03/07 10:45:44;;;;;;;;;;;;;;;;;;4962084;28;19934;-63
2021/03/07 10:48:11;;;;;;;;;;;;;;;;;;4964069;28;19930;-64
2021/03/07 10:50:38;;;;;;;;;;;;;;;;;;4961089;28;20461;-64
2021/03/07 10:53:06;;;;;;;;;;;;;;;;;;4965229;28;20283;-63
2021/03/07 10:55:33;;;;;;;;;;;;;;;;;;4960096;28;19930;-66
2021/03/07 10:58:00;;;;;;;;;;;;;;;;;;4963782;28;20025;-68
2021/03/07 11:00:27;;;;;;;;;;;;;;;;;;4965023;28;20032;-63
2021/03/07 11:02:54;;;;;;;;;;;;;;;;;;4960899;28;20370;-64
2021/03/07 11:05:21;;;;;;;;;;;;;;;;;;4960472;28;20008;-66
2021/03/07 11:07:48;;;;;;;;;;;;;;;;;;4955534;28;20498;-65
2021/03/07 11:10:16;;;;;;;;;;;;;;;;;;4963867;28;20041;-64
2021/03/07 11:12:43;;;;;;;;;;;;;;;;;;4963425;28;19926;-65
2021/03/07 11:15:10;;;;;;;;;;;;;;;;;;4963098;28;20022;-65
2021/03/07 11:17:37;;;;;;;;;;;;;;;;;;4957551;28;19941;-64
2021/03/07 11:20:05;;;;;;;;;;;;;;;;;;4961051;28;19934;-64
2021/03/07 11:22:32;;;;;;;;;;;;;;;;;;4955624;28;20310;-65
2021/03/07 11:24:59;;;;;;;;;;;;;;;;;;4965590;28;19937;-64
2021/03/07 11:27:26;;;;;;;;;;;;;;;;;;4965810;28;20033;-64
2021/03/07 11:29:54;;;;;;;;;;;;;;;;;;4964172;28;20044;-64
2021/03/07 11:32:21;;;;;;;;;;;;;;;;;;4964414;28;19977;-65
2021/03/07 11:34:48;;;;;;;;;;;;;;;;;;4964944;28;19976;-64
2021/03/07 11:37:15;;;;;;;;;;;;;;;;;;4965057;28;20361;-67
2021/03/07 11:39:43;;;;;;;;;;;;;;;;;;4964514;28;19937;-62
2021/03/07 11:42:10;;;;;;;;;;;;;;;;;;4966137;28;19957;-68
2021/03/07 11:44:37;;;;;;;;;;;;;;;;;;4963826;28;20107;-64
2021/03/07 11:47:05;;;;;;;;;;;;;;;;;;4972838;28;20040;-66
2021/03/07 11:49:40;;;;;;;;;;;;;;;;;;4965358;28;19930;-64
2021/03/07 11:52:08;;;;;;;;;;;;;;;;;;4969275;28;20463;-65
2021/03/07 11:54:35;;;;;;;;;;;;;;;;;;4969108;28;20028;-65
2021/03/07 11:57:03;;;;;;;;;;;;;;;;;;4964809;28;19993;-67
2021/03/07 11:59:30;;;;;;;;;;;;;;;;;;4964829;28;19930;-67
2021/03/07 12:01:57;;;;;;;;;;;;;;;;;;4968510;28;20033;-64
2021/03/07 12:04:24;;;;;;;;;;;;;;;;;;4965487;28;20320;-65
2021/03/07 12:06:52;;;;;;;;;;;;;;;;;;4979834;28;19929;-63
2021/03/07 12:09:19;;;;;;;;;;;;;;;;;;4967869;28;20432;-63
2021/03/07 12:11:46;;;;;;;;;;;;;;;;;;4969019;28;19930;-65
2021/03/07 12:14:13;;;;;;;;;;;;;;;;;;4968625;28;19962;-66
2021/03/07 12:16:40;;;;;;;;;;;;;;;;;;4982263;28;19965;-62
2021/03/07 12:19:07;;;;;;;;;;;;;;;;;;4969975;28;20413;-64
2021/03/07 12:21:35;;;;;;;;;;;;;;;;;;4970234;28;19930;-64
2021/03/07 12:24:02;;;;;;;;;;;;;;;;;;4970179;28;19930;-64
2021/03/07 12:26:29;;;;;;;;;;;;;;;;;;4970168;28;20022;-65
2021/03/07 12:28:57;;;;;;;;;;;;;;;;;;4965088;28;20263;-65
2021/03/07 12:31:24;;;;;;;;;;;;;;;;;;4970369;28;20389;-65
2021/03/07 12:33:51;;;;;;;;;;;;;;;;;;4968028;28;19934;-65
2021/03/07 12:36:19;;;;;;;;;;;;;;;;;;4966518;28;20398;-64
2021/03/07 12:38:46;;;;;;;;;;;;;;;;;;4967738;28;19981;-66
2021/03/07 12:41:13;;;;;;;;;;;;;;;;;;4954380;28;19981;-64
2021/03/07 12:43:40;;;;;;;;;;;;;;;;;;4970373;28;19931;-67
2021/03/07 12:46:07;;;;;;;;;;;;;;;;;;4969136;28;20615;-64
2021/03/07 12:48:34;;;;;;;;;;;;;;;;;;4977016;28;19930;-66
2021/03/07 12:51:02;;;;;;;;;;;;;;;;;;4968364;28;19985;-66
2021/03/07 12:53:30;;;;;;;;;;;;;;;;;;4965377;28;19938;-67
2021/03/07 12:55:57;;;;;;;;;;;;;;;;;;4970149;28;19933;-64
2021/03/07 12:58:25;;;;;;;;;;;;;;;;;;4969528;28;19969;-63
2021/03/07 13:00:52;;;;;;;;;;;;;;;;;;4970918;28;19936;-64
2021/03/07 13:03:20;;;;;;;;;;;;;;;;;;4970603;28;20307;-66
2021/03/07 13:05:47;;;;;;;;;;;;;;;;;;4965533;28;20004;-63
2021/03/07 13:08:14;;;;;;;;;;;;;;;;;;4973394;28;20224;-63
2021/03/07 13:10:41;;;;;;;;;;;;;;;;;;4968985;28;20032;-64
2021/03/07 13:13:08;;;;;;;;;;;;;;;;;;4970367;28;19965;-64
2021/03/07 13:15:35;;;;;;;;;;;;;;;;;;4968731;28;19930;-64
2021/03/07 13:18:05;;;;;;;;;;;;;;;;;;4968987;28;20271;-64
2021/03/07 13:20:48;;;;;;;;;;;;;;;;;;4970583;28;20379;-66
2021/03/07 13:23:15;;;;;;;;;;;;;;;;;;4970922;28;19973;-64
2021/03/07 13:25:43;;;;;;;;;;;;;;;;;;4973951;28;20361;-65
2021/03/07 13:28:10;;;;;;;;;;;;;;;;;;4967392;28;19937;-64
2021/03/07 13:30:37;;;;;;;;;;;;;;;;;;4970083;28;20371;-65
2021/03/07 13:33:04;;;;;;;;;;;;;;;;;;4970342;28;19973;-64
2021/03/07 13:35:32;;;;;;;;;;;;;;;;;;4970858;28;19930;-64
2021/03/07 13:37:59;;;;;;;;;;;;;;;;;;4968166;28;20454;-64
2021/03/07 13:40:26;;;;;;;;;;;;;;;;;;4966736;28;20370;-64
2021/03/07 13:42:57;;;;;;;;;;;;;;;;;;4970496;28;19980;-65
2021/03/07 13:45:24;;;;;;;;;;;;;;;;;;4989114;28;20029;-65
2021/03/07 13:47:51;;;;;;;;;;;;;;;;;;4973357;28;20013;-63
2021/03/07 13:50:19;;;;;;;;;;;;;;;;;;4971272;28;19931;-65
2021/03/07 13:52:46;;;;;;;;;;;;;;;;;;4966601;28;19930;-64
2021/03/07 13:55:13;;;;;;;;;;;;;;;;;;4970670;28;19930;-65
2021/03/07 13:57:40;;;;;;;;;;;;;;;;;;4973469;28;20054;-64
2021/03/07 14:00:08;;;;;;;;;;;;;;;;;;4963355;28;19957;-66
2021/03/07 14:02:35;;;;;;;;;;;;;;;;;;4962876;28;20004;-67
2021/03/07 14:05:02;;;;;;;;;;;;;;;;;;4960097;28;20334;-64
2021/03/07 14:07:30;;;;;;;;;;;;;;;;;;4967967;28;19926;-66
2021/03/07 14:09:57;;;;;;;;;;;;;;;;;;4967765;28;19973;-64
2021/03/07 14:12:24;;;;;;;;;;;;;;;;;;4967455;28;20390;-63
2021/03/07 14:14:52;;;;;;;;;;;;;;;;;;4961150;28;20025;-64
2021/03/07 14:17:19;;;;;;;;;;;;;;;;;;4969170;28;19930;-64
2021/03/07 14:19:46;;;;;;;;;;;;;;;;;;4968262;28;19978;-66
2021/03/07 14:22:13;;;;;;;;;;;;;;;;;;4965739;28;19934;-63
2021/03/07 14:24:41;;;;;;;;;;;;;;;;;;4966917;28;20436;-63
2021/03/07 14:27:11;;;;;;;;;;;;;;;;;;4969758;28;19977;-64
2021/03/07 14:29:38;;;;;;;;;;;;;;;;;;4966960;28;19930;-64
2021/03/07 14:32:06;;;;;;;;;;;;;;;;;;4969186;28;19930;-64
2021/03/07 14:34:33;;;;;;;;;;;;;;;;;;4962514;28;19958;-66
2021/03/07 14:37:00;;;;;;;;;;;;;;;;;;4970439;28;20396;-66
2021/03/07 14:39:28;;;;;;;;;;;;;;;;;;4970239;28;19934;-65
2021/03/07 14:41:55;;;;;;;;;;;;;;;;;;4969924;28;20686;-63
2021/03/07 14:44:22;;;;;;;;;;;;;;;;;;4971271;28;19966;-64
2021/03/07 14:46:49;;;;;;;;;;;;;;;;;;4969236;28;20482;-64
2021/03/07 14:49:16;;;;;;;;;;;;;;;;;;4968865;28;19930;-65
2021/03/07 14:51:56;;;;;;;;;;;;;;;;;;4969629;28;19933;-63
2021/03/07 14:54:23;;;;;;;;;;;;;;;;;;4970033;28;19926;-64
2021/03/07 14:56:50;;;;;;;;;;;;;;;;;;4967089;28;20136;-64
2021/03/07 14:59:17;;;;;;;;;;;;;;;;;;4965625;28;19980;-65
2021/03/07 15:01:45;;;;;;;;;;;;;;;;;;4966342;28;20029;-65
2021/03/07 15:04:12;;;;;;;;;;;;;;;;;;4964168;28;19933;-64
2021/03/07 15:06:39;;;;;;;;;;;;;;;;;;4968193;28;20353;-65
2021/03/07 15:09:07;;;;;;;;;;;;;;;;;;4969883;28;19938;-65
2021/03/07 15:11:34;;;;;;;;;;;;;;;;;;4954298;28;20280;-65
2021/03/07 15:14:01;;;;;;;;;;;;;;;;;;4969234;28;20001;-66
2021/03/07 15:16:29;;;;;;;;;;;;;;;;;;4970535;28;19935;-64
2021/03/07 15:18:56;;;;;;;;;;;;;;;;;;4968701;28;19930;-64
2021/03/07 15:21:23;;;;;;;;;;;;;;;;;;4966643;28;20018;-67
2021/03/07 15:23:50;;;;;;;;;;;;;;;;;;4972069;28;19974;-64
2021/03/07 15:26:17;;;;;;;;;;;;;;;;;;4977025;28;19934;-65
2021/03/07 15:28:44;;;;;;;;;;;;;;;;;;4971534;28;19965;-68
2021/03/07 15:31:12;;;;;;;;;;;;;;;;;;4962231;28;19981;-66
2021/03/07 15:33:39;;;;;;;;;;;;;;;;;;4972178;28;19926;-65
2021/03/07 15:36:07;;;;;;;;;;;;;;;;;;4972097;28;20290;-65
2021/03/07 15:38:34;;;;;;;;;;;;;;;;;;4970616;28;20020;-65
2021/03/07 15:41:01;;;;;;;;;;;;;;;;;;4973607;28;20024;-69
2021/03/07 15:43:28;;;;;;;;;;;;;;;;;;4971782;28;19927;-65
2021/03/07 15:45:56;;;;;;;;;;;;;;;;;;4971155;28;19937;-65
2021/03/07 15:48:24;;;;;;;;;;;;;;;;;;4969217;28;20044;-66
2021/03/07 15:50:51;;;;;;;;;;;;;;;;;;4969345;28;19934;-65
2021/03/07 15:53:18;;;;;;;;;;;;;;;;;;4969008;28;19957;-66
2021/03/07 15:55:45;;;;;;;;;;;;;;;;;;4971108;28;19930;-65
2021/03/07 15:58:13;;;;;;;;;;;;;;;;;;4969127;28;19930;-65
2021/03/07 16:00:40;;;;;;;;;;;;;;;;;;4965555;28;19985;-65
2021/03/07 16:03:07;;;;;;;;;;;;;;;;;;4967634;28;19937;-65
2021/03/07 16:05:34;;;;;;;;;;;;;;;;;;4977859;28;20008;-65
2021/03/07 16:08:02;;;;;;;;;;;;;;;;;;4967059;28;19934;-64
2021/03/07 16:10:30;;;;;;;;;;;;;;;;;;4968843;28;19953;-64
2021/03/07 16:12:57;;;;;;;;;;;;;;;;;;4967045;28;19926;-65
2021/03/07 16:15:25;;;;;;;;;;;;;;;;;;4968955;28;19937;-65
2021/03/07 16:17:52;;;;;;;;;;;;;;;;;;4968358;28;19993;-65
2021/03/07 16:20:20;;;;;;;;;;;;;;;;;;4966944;28;19937;-65
2021/03/07 16:23:07;;;;;;;;;;;;;;;;;;4966803;28;20527;-65
2021/03/07 16:25:34;;;;;;;;;;;;;;;;;;4966022;28;19930;-67
2021/03/07 16:28:02;;;;;;;;;;;;;;;;;;4966880;28;20414;-66
2021/03/07 16:30:29;;;;;;;;;;;;;;;;;;4968409;28;19930;-65
2021/03/07 16:32:56;;;;;;;;;;;;;;;;;;4966323;28;19998;-65
2021/03/07 16:35:24;;;;;;;;;;;;;;;;;;4964686;28;19937;-65
2021/03/07 16:37:51;;;;;;;;;;;;;;;;;;4962295;28;19985;-65
2021/03/07 16:40:18;;;;;;;;;;;;;;;;;;4962300;28;20013;-65
2021/03/07 16:42:45;;;;;;;;;;;;;;;;;;4968087;28;20009;-66
2021/03/07 16:45:12;;;;;;;;;;;;;;;;;;4965948;28;20559;-65
2021/03/07 16:47:40;;;;;;;;;;;;;;;;;;4964833;28;19934;-66
2021/03/07 16:50:07;;;;;;;;;;;;;;;;;;4966628;28;19930;-66